PRIVATE WETTERSTATION BILLIGHEIM-ALLFELD                       ZURCK
Wetterdaten: Samstag, 20.09.2014
Datum Zeit Temp. A. Temp. A. min Temp. A. max Feuchte A. Luftdruck Regen Wind Richtung Richtung Sonnenschein ET Solar Taupunkt Windchill Windben Empfang
20.09.2014 00:00 17,2 C 17,1 C 17,2 C 90 % 1013,5 hPa 0,0 l/m 1,6 km/h (1 Bft) SO 135 0 min 0,000 mm 0 W/m 15,5 C 17,2 C 6,4 km/h (2 Bft) 100 %
20.09.2014 00:10 17,2 C 17,2 C 17,2 C 90 % 1013,6 hPa 0,0 l/m 0,0 km/h (0 Bft) SO 135 0 min 0,000 mm 0 W/m 15,5 C 17,2 C 1,6 km/h (1 Bft) 100 %
20.09.2014 00:20 17,2 C 17,2 C 17,2 C 90 % 1013,6 hPa 0,0 l/m 0,0 km/h (0 Bft) N 0 0 min 0,000 mm 0 W/m 15,5 C 17,2 C 0,0 km/h (0 Bft) 100 %
20.09.2014 00:30 17,2 C 17,2 C 17,2 C 90 % 1013,6 hPa 0,0 l/m 0,0 km/h (0 Bft) SO 135 0 min 0,000 mm 0 W/m 15,5 C 17,2 C 1,6 km/h (1 Bft) 100 %
20.09.2014 00:40 17,2 C 17,2 C 17,2 C 90 % 1013,6 hPa 0,0 l/m 0,0 km/h (0 Bft) SO 135 0 min 0,000 mm 0 W/m 15,5 C 17,2 C 1,6 km/h (1 Bft) 100 %
20.09.2014 00:50 17,1 C 17,1 C 17,2 C 90 % 1013,7 hPa 0,0 l/m 0,0 km/h (0 Bft) N 0 0 min 0,000 mm 0 W/m 15,4 C 17,1 C 0,0 km/h (0 Bft) 100 %
20.09.2014 01:00 16,9 C 16,9 C 17,1 C 90 % 1013,6 hPa 0,0 l/m 0,0 km/h (0 Bft) N 0 0 min 0,000 mm 0 W/m 15,2 C 16,9 C 0,0 km/h (0 Bft) 100 %
20.09.2014 01:10 16,8 C 16,8 C 16,9 C 90 % 1013,6 hPa 0,0 l/m 0,0 km/h (0 Bft) N 0 0 min 0,000 mm 0 W/m 15,1 C 16,8 C 0,0 km/h (0 Bft) 100 %
20.09.2014 01:20 16,9 C 16,8 C 16,9 C 90 % 1013,5 hPa 0,0 l/m 1,6 km/h (1 Bft) SO 135 0 min 0,000 mm 0 W/m 15,2 C 16,9 C 4,8 km/h (1 Bft) 100 %
20.09.2014 01:30 17,1 C 16,9 C 17,1 C 90 % 1013,5 hPa 0,0 l/m 0,0 km/h (0 Bft) N 0 0 min 0,000 mm 0 W/m 15,4 C 17,1 C 0,0 km/h (0 Bft) 100 %
20.09.2014 01:40 17,1 C 17,0 C 17,1 C 90 % 1013,5 hPa 0,0 l/m 0,0 km/h (0 Bft) N 0 0 min 0,000 mm 0 W/m 15,4 C 17,1 C 0,0 km/h (0 Bft) 100 %
20.09.2014 01:50 16,9 C 16,9 C 17,0 C 90 % 1013,6 hPa 0,0 l/m 0,0 km/h (0 Bft) SO 135 0 min 0,000 mm 0 W/m 15,2 C 16,9 C 1,6 km/h (1 Bft) 99 %
20.09.2014 02:00 16,8 C 16,8 C 16,9 C 90 % 1013,8 hPa 0,0 l/m 1,6 km/h (1 Bft) SO 135 0 min 0,000 mm 0 W/m 15,1 C 16,8 C 4,8 km/h (1 Bft) 99 %
20.09.2014 02:10 16,7 C 16,7 C 16,8 C 90 % 1013,6 hPa 0,0 l/m 0,0 km/h (0 Bft) SO 135 0 min 0,000 mm 0 W/m 15,0 C 16,7 C 1,6 km/h (1 Bft) 100 %
20.09.2014 02:20 16,7 C 16,6 C 16,7 C 90 % 1013,7 hPa 0,0 l/m 0,0 km/h (0 Bft) S-SO 157 0 min 0,000 mm 0 W/m 15,0 C 16,7 C 1,6 km/h (1 Bft) 100 %
20.09.2014 02:30 16,6 C 16,6 C 16,7 C 90 % 1013,6 hPa 0,0 l/m 1,6 km/h (1 Bft) S-SO 157 0 min 0,000 mm 0 W/m 15,0 C 16,6 C 6,4 km/h (2 Bft) 100 %
20.09.2014 02:40 16,4 C 16,4 C 16,6 C 90 % 1013,6 hPa 0,0 l/m 0,0 km/h (0 Bft) N 0 0 min 0,000 mm 0 W/m 14,8 C 16,4 C 0,0 km/h (0 Bft) 100 %
20.09.2014 02:50 16,4 C 16,4 C 16,4 C 90 % 1013,6 hPa 0,0 l/m 0,0 km/h (0 Bft) N 0 0 min 0,000 mm 0 W/m 14,8 C 16,4 C 0,0 km/h (0 Bft) 100 %
20.09.2014 03:00 16,2 C 16,2 C 16,4 C 90 % 1013,5 hPa 0,0 l/m 0,0 km/h (0 Bft) S-SO 157 0 min 0,000 mm 0 W/m 14,6 C 16,2 C 3,2 km/h (1 Bft) 100 %
20.09.2014 03:10 16,0 C 16,0 C 16,2 C 90 % 1013,6 hPa 0,0 l/m 0,0 km/h (0 Bft) S-SO 157 0 min 0,000 mm 0 W/m 14,4 C 16,0 C 3,2 km/h (1 Bft) 100 %
20.09.2014 03:20 16,0 C 16,0 C 16,1 C 90 % 1013,6 hPa 0,0 l/m 1,6 km/h (1 Bft) SO 135 0 min 0,000 mm 0 W/m 14,4 C 16,0 C 4,8 km/h (1 Bft) 100 %
20.09.2014 03:30 15,9 C 15,9 C 16,0 C 90 % 1013,6 hPa 0,0 l/m 0,0 km/h (0 Bft) SO 135 0 min 0,000 mm 0 W/m 14,3 C 15,9 C 4,8 km/h (1 Bft) 100 %
20.09.2014 03:40 15,8 C 15,8 C 15,9 C 90 % 1013,5 hPa 0,0 l/m 0,0 km/h (0 Bft) SO 135 0 min 0,000 mm 0 W/m 14,2 C 15,8 C 1,6 km/h (1 Bft) 99 %
20.09.2014 03:50 15,8 C 15,8 C 15,9 C 90 % 1013,5 hPa 0,0 l/m 0,0 km/h (0 Bft) N 0 0 min 0,000 mm 0 W/m 14,2 C 15,8 C 0,0 km/h (0 Bft) 100 %
20.09.2014 04:00 15,7 C 15,7 C 15,8 C 90 % 1013,4 hPa 0,0 l/m 0,0 km/h (0 Bft) N 0 0 min 0,000 mm 0 W/m 14,1 C 15,7 C 0,0 km/h (0 Bft) 100 %
20.09.2014 04:10 15,3 C 15,3 C 15,7 C 90 % 1013,4 hPa 0,0 l/m 0,0 km/h (0 Bft) N 0 0 min 0,000 mm 0 W/m 13,7 C 15,3 C 0,0 km/h (0 Bft) 100 %
20.09.2014 04:20 15,1 C 15,1 C 15,3 C 90 % 1013,4 hPa 0,0 l/m 0,0 km/h (0 Bft) SO 135 0 min 0,000 mm 0 W/m 13,5 C 15,1 C 1,6 km/h (1 Bft) 100 %
20.09.2014 04:30 15,0 C 15,0 C 15,1 C 90 % 1013,4 hPa 0,0 l/m 0,0 km/h (0 Bft) SO 135 0 min 0,000 mm 0 W/m 13,4 C 15,0 C 3,2 km/h (1 Bft) 100 %
20.09.2014 04:40 14,8 C 14,8 C 15,0 C 90 % 1013,4 hPa 0,0 l/m 0,0 km/h (0 Bft) N 0 0 min 0,000 mm 0 W/m 13,2 C 14,8 C 0,0 km/h (0 Bft) 100 %
20.09.2014 04:50 14,6 C 14,6 C 14,8 C 90 % 1013,3 hPa 0,0 l/m 0,0 km/h (0 Bft) SO 135 0 min 0,000 mm 0 W/m 13,0 C 14,6 C 1,6 km/h (1 Bft) 100 %
20.09.2014 05:00 14,6 C 14,5 C 14,6 C 90 % 1013,4 hPa 0,0 l/m 0,0 km/h (0 Bft) SO 135 0 min 0,000 mm 0 W/m 13,0 C 14,6 C 1,6 km/h (1 Bft) 100 %
20.09.2014 05:10 14,3 C 14,3 C 14,6 C 90 % 1013,6 hPa 0,0 l/m 0,0 km/h (0 Bft) N 0 0 min 0,000 mm 0 W/m 12,7 C 14,3 C 0,0 km/h (0 Bft) 100 %
20.09.2014 05:20 14,1 C 14,1 C 14,3 C 90 % 1013,5 hPa 0,0 l/m 0,0 km/h (0 Bft) SO 135 0 min 0,000 mm 0 W/m 12,5 C 14,1 C 1,6 km/h (1 Bft) 100 %
20.09.2014 05:30 14,3 C 14,1 C 14,3 C 90 % 1013,5 hPa 0,0 l/m 0,0 km/h (0 Bft) SO 135 0 min 0,000 mm 0 W/m 12,7 C 14,3 C 3,2 km/h (1 Bft) 100 %
20.09.2014 05:40 14,3 C 14,2 C 14,3 C 90 % 1013,5 hPa 0,0 l/m 0,0 km/h (0 Bft) SO 135 0 min 0,000 mm 0 W/m 12,7 C 14,3 C 1,6 km/h (1 Bft) 100 %
20.09.2014 05:50 14,3 C 14,3 C 14,4 C 90 % 1013,5 hPa 0,0 l/m 0,0 km/h (0 Bft) SO 135 0 min 0,000 mm 0 W/m 12,7 C 14,3 C 1,6 km/h (1 Bft) 100 %
20.09.2014 06:00 14,2 C 14,2 C 14,3 C 90 % 1013,5 hPa 0,0 l/m 0,0 km/h (0 Bft) SO 135 0 min 0,000 mm 0 W/m 12,6 C 14,2 C 3,2 km/h (1 Bft) 100 %
20.09.2014 06:10 14,3 C 14,2 C 14,3 C 90 % 1013,5 hPa 0,0 l/m 0,0 km/h (0 Bft) N 0 0 min 0,000 mm 0 W/m 12,7 C 14,3 C 0,0 km/h (0 Bft) 100 %
20.09.2014 06:20 14,2 C 14,2 C 14,3 C 90 % 1013,5 hPa 0,0 l/m 0,0 km/h (0 Bft) SO 135 0 min 0,000 mm 0 W/m 12,6 C 14,2 C 3,2 km/h (1 Bft) 100 %
20.09.2014 06:30 14,4 C 14,2 C 14,4 C 90 % 1013,4 hPa 0,0 l/m 0,0 km/h (0 Bft) SO 135 0 min 0,000 mm 0 W/m 12,8 C 14,4 C 1,6 km/h (1 Bft) 100 %
20.09.2014 06:40 14,3 C 14,3 C 14,4 C 90 % 1013,4 hPa 0,0 l/m 0,0 km/h (0 Bft) N 0 0 min 0,000 mm 0 W/m 12,7 C 14,3 C 0,0 km/h (0 Bft) 100 %
20.09.2014 06:50 14,6 C 14,3 C 14,6 C 90 % 1013,4 hPa 0,0 l/m 0,0 km/h (0 Bft) SO 135 0 min 0,000 mm 0 W/m 13,0 C 14,6 C 1,6 km/h (1 Bft) 100 %
20.09.2014 07:00 14,8 C 14,6 C 14,8 C 90 % 1013,5 hPa 0,0 l/m 0,0 km/h (0 Bft) SO 135 0 min 0,000 mm 0 W/m 13,2 C 14,8 C 3,2 km/h (1 Bft) 100 %
20.09.2014 07:10 14,8 C 14,8 C 14,8 C 90 % 1013,6 hPa 0,0 l/m 0,0 km/h (0 Bft) SO 135 0 min 0,000 mm 0 W/m 13,2 C 14,8 C 4,8 km/h (1 Bft) 100 %
20.09.2014 07:20 14,8 C 14,6 C 14,8 C 90 % 1013,6 hPa 0,0 l/m 1,6 km/h (1 Bft) O-SO 112 0 min 0,000 mm 7 W/m 13,2 C 14,8 C 4,8 km/h (1 Bft) 100 %
20.09.2014 07:30 14,8 C 14,8 C 14,8 C 90 % 1013,5 hPa 0,0 l/m 0,0 km/h (0 Bft) SO 135 0 min 0,000 mm 11 W/m 13,2 C 14,8 C 6,4 km/h (2 Bft) 100 %
20.09.2014 07:40 14,4 C 14,4 C 14,8 C 90 % 1013,7 hPa 0,0 l/m 0,0 km/h (0 Bft) N 0 0 min 0,000 mm 11 W/m 12,8 C 14,4 C 0,0 km/h (0 Bft) 100 %
20.09.2014 07:50 13,8 C 13,8 C 14,3 C 90 % 1013,7 hPa 0,0 l/m 0,0 km/h (0 Bft) SO 135 0 min 0,000 mm 14 W/m 12,2 C 13,8 C 1,6 km/h (1 Bft) 100 %
20.09.2014 08:00 13,6 C 13,6 C 13,8 C 90 % 1013,9 hPa 0,0 l/m 0,0 km/h (0 Bft) N 0 0 min 0,000 mm 21 W/m 12,0 C 13,6 C 0,0 km/h (0 Bft) 100 %
20.09.2014 08:10 13,5 C 13,5 C 13,7 C 90 % 1013,8 hPa 0,0 l/m 0,0 km/h (0 Bft) SO 135 0 min 0,000 mm 21 W/m 11,9 C 13,5 C 3,2 km/h (1 Bft) 100 %
20.09.2014 08:20 13,5 C 13,5 C 13,5 C 90 % 1013,7 hPa 0,0 l/m 0,0 km/h (0 Bft) N 0 0 min 0,000 mm 30 W/m 11,9 C 13,5 C 0,0 km/h (0 Bft) 100 %
20.09.2014 08:30 13,6 C 13,5 C 13,6 C 90 % 1013,7 hPa 0,0 l/m 0,0 km/h (0 Bft) N 0 0 min 0,000 mm 79 W/m 12,0 C 13,6 C 0,0 km/h (0 Bft) 100 %
20.09.2014 08:40 14,1 C 13,6 C 14,1 C 90 % 1013,8 hPa 0,0 l/m 0,0 km/h (0 Bft) N 0 10 min 0,000 mm 206 W/m 12,5 C 14,1 C 0,0 km/h (0 Bft) 100 %
20.09.2014 08:50 14,8 C 14,1 C 14,8 C 90 % 1013,9 hPa 0,0 l/m 0,0 km/h (0 Bft) N 0 10 min 0,000 mm 218 W/m 13,2 C 14,8 C 0,0 km/h (0 Bft) 100 %
20.09.2014 09:00 15,1 C 14,8 C 15,1 C 90 % 1013,9 hPa 0,0 l/m 0,0 km/h (0 Bft) S 180 10 min 0,051 mm 229 W/m 13,5 C 15,1 C 3,2 km/h (1 Bft) 100 %
20.09.2014 09:10 15,1 C 15,1 C 15,3 C 90 % 1014,0 hPa 0,0 l/m 0,0 km/h (0 Bft) S-SO 157 10 min 0,000 mm 204 W/m 13,5 C 15,1 C 4,8 km/h (1 Bft) 100 %
20.09.2014 09:20 15,3 C 15,1 C 15,3 C 90 % 1013,9 hPa 0,0 l/m 0,0 km/h (0 Bft) S-SO 157 10 min 0,000 mm 179 W/m 13,7 C 15,3 C 1,6 km/h (1 Bft) 99 %
20.09.2014 09:30 15,4 C 15,3 C 15,4 C 90 % 1014,0 hPa 0,0 l/m 0,0 km/h (0 Bft) S-SO 157 10 min 0,000 mm 174 W/m 13,8 C 15,4 C 1,6 km/h (1 Bft) 100 %
20.09.2014 09:40 16,1 C 15,4 C 16,1 C 90 % 1014,0 hPa 0,0 l/m 0,0 km/h (0 Bft) S-SO 157 10 min 0,000 mm 464 W/m 14,5 C 16,1 C 1,6 km/h (1 Bft) 100 %
20.09.2014 09:50 16,7 C 16,1 C 16,7 C 89 % 1014,0 hPa 0,0 l/m 0,0 km/h (0 Bft) S 180 10 min 0,000 mm 454 W/m 14,9 C 16,7 C 6,4 km/h (2 Bft) 100 %
20.09.2014 10:00 16,8 C 16,7 C 16,9 C 90 % 1014,0 hPa 0,0 l/m 0,0 km/h (0 Bft) S-SO 157 10 min 0,127 mm 216 W/m 15,1 C 16,8 C 1,6 km/h (1 Bft) 100 %
20.09.2014 10:10 16,7 C 16,7 C 16,8 C 90 % 1014,1 hPa 0,0 l/m 1,6 km/h (1 Bft) S-SO 157 10 min 0,000 mm 165 W/m 15,0 C 16,7 C 6,4 km/h (2 Bft) 100 %
20.09.2014 10:20 16,9 C 16,7 C 16,9 C 90 % 1014,2 hPa 0,0 l/m 3,2 km/h (1 Bft) S-SO 157 10 min 0,000 mm 350 W/m 15,2 C 16,9 C 9,7 km/h (2 Bft) 100 %
20.09.2014 10:30 17,1 C 16,7 C 17,1 C 90 % 1014,2 hPa 0,0 l/m 2,0 km/h (1 Bft) S-SW 199 10 min 0,000 mm 427 W/m 15,4 C 17,1 C 9,7 km/h (2 Bft) 97 %
20.09.2014 10:40 17,9 C 17,1 C 17,9 C 90 % 1014,2 hPa 0,0 l/m 2,4 km/h (1 Bft) SO 140 10 min 0,000 mm 452 W/m 16,2 C 17,9 C 9,7 km/h (2 Bft) 97 %
20.09.2014 10:50 17,9 C 17,9 C 18,0 C 90 % 1014,2 hPa 0,0 l/m 2,0 km/h (1 Bft) SW 236 10 min 0,000 mm 192 W/m 16,2 C 17,9 C 11,3 km/h (2 Bft) 98 %
20.09.2014 11:00 18,1 C 17,9 C 18,1 C 90 % 1014,2 hPa 0,0 l/m 4,6 km/h (1 Bft) SW 217 10 min 0,178 mm 325 W/m 16,4 C 18,1 C 16,1 km/h (3 Bft) 97 %
20.09.2014 11:10 18,5 C 18,1 C 18,5 C 90 % 1014,2 hPa 0,0 l/m 3,4 km/h (1 Bft) SW 230 10 min 0,000 mm 241 W/m 16,8 C 18,5 C 11,3 km/h (2 Bft) 98 %
20.09.2014 11:20 18,7 C 18,5 C 18,7 C 88 % 1014,4 hPa 0,0 l/m 4,6 km/h (1 Bft) SW 217 10 min 0,000 mm 292 W/m 16,7 C 18,7 C 16,1 km/h (3 Bft) 97 %
20.09.2014 11:30 18,9 C 18,7 C 18,9 C 88 % 1014,2 hPa 0,0 l/m 2,2 km/h (1 Bft) W-SW 247 10 min 0,000 mm 362 W/m 16,9 C 18,9 C 9,7 km/h (2 Bft) 98 %
20.09.2014 11:40 19,3 C 18,9 C 19,3 C 87 % 1014,2 hPa 0,0 l/m 3,2 km/h (1 Bft) S 189 10 min 0,000 mm 176 W/m 17,1 C 19,3 C 14,5 km/h (3 Bft) 97 %
20.09.2014 11:50 19,5 C 19,3 C 19,5 C 87 % 1014,3 hPa 0,0 l/m 3,5 km/h (1 Bft) S-SW 198 10 min 0,000 mm 346 W/m 17,3 C 19,5 C 11,3 km/h (2 Bft) 97 %
20.09.2014 12:00 19,8 C 19,5 C 19,8 C 86 % 1014,3 hPa 0,0 l/m 3,1 km/h (1 Bft) SW 224 10 min 0,177 mm 387 W/m 17,4 C 19,8 C 11,3 km/h (2 Bft) 97 %
20.09.2014 12:10 20,1 C 19,8 C 20,1 C 85 % 1014,3 hPa 0,0 l/m 2,8 km/h (1 Bft) S 191 10 min 0,000 mm 281 W/m 17,5 C 20,1 C 11,3 km/h (2 Bft) 97 %
20.09.2014 12:20 20,1 C 20,1 C 20,1 C 85 % 1014,3 hPa 0,0 l/m 4,1 km/h (1 Bft) W-SW 257 10 min 0,000 mm 183 W/m 17,5 C 20,1 C 11,3 km/h (2 Bft) 98 %
20.09.2014 12:30 20,1 C 20,1 C 20,2 C 84 % 1014,3 hPa 0,0 l/m 3,6 km/h (1 Bft) SW 214 10 min 0,000 mm 169 W/m 17,3 C 20,1 C 14,5 km/h (3 Bft) 97 %
20.09.2014 12:40 20,1 C 20,1 C 20,2 C 83 % 1014,3 hPa 0,0 l/m 2,4 km/h (1 Bft) W 264 10 min 0,000 mm 153 W/m 17,1 C 20,1 C 11,3 km/h (2 Bft) 98 %
20.09.2014 12:50 20,1 C 20,1 C 20,1 C 82 % 1014,2 hPa 0,0 l/m 1,1 km/h (1 Bft) W 277 10 min 0,000 mm 179 W/m 16,9 C 20,1 C 8,0 km/h (2 Bft) 96 %
20.09.2014 13:00 20,2 C 20,1 C 20,2 C 84 % 1014,3 hPa 0,0 l/m 0,7 km/h (0 Bft) W 264 10 min 0,127 mm 176 W/m 17,4 C 20,2 C 8,0 km/h (2 Bft) 97 %
20.09.2014 13:10 20,3 C 20,2 C 20,3 C 84 % 1014,3 hPa 0,0 l/m 0,2 km/h (0 Bft) W-NW 291 10 min 0,000 mm 172 W/m 17,5 C 20,3 C 4,8 km/h (1 Bft) 98 %
20.09.2014 13:20 20,4 C 20,3 C 20,4 C 82 % 1014,4 hPa 0,0 l/m 1,8 km/h (1 Bft) W 277 10 min 0,000 mm 204 W/m 17,2 C 20,4 C 8,0 km/h (2 Bft) 97 %
20.09.2014 13:30 20,5 C 20,4 C 20,5 C 83 % 1014,3 hPa 0,0 l/m 1,1 km/h (1 Bft) W-NW 296 10 min 0,000 mm 221 W/m 17,5 C 20,5 C 8,0 km/h (2 Bft) 97 %
20.09.2014 13:40 20,6 C 20,5 C 20,6 C 83 % 1014,2 hPa 0,0 l/m 1,9 km/h (1 Bft) W-SW 256 10 min 0,000 mm 204 W/m 17,6 C 20,6 C 8,0 km/h (2 Bft) 97 %
20.09.2014 13:50 20,8 C 20,6 C 20,8 C 82 % 1014,1 hPa 0,0 l/m 1,4 km/h (1 Bft) W-NW 303 10 min 0,000 mm 199 W/m 17,6 C 20,8 C 8,0 km/h (2 Bft) 98 %
20.09.2014 14:00 20,8 C 20,8 C 20,8 C 84 % 1014,0 hPa 0,0 l/m 0,5 km/h (0 Bft) W-SW 255 10 min 0,127 mm 225 W/m 18,0 C 20,8 C 9,7 km/h (2 Bft) 97 %
20.09.2014 14:10 21,1 C 20,8 C 21,1 C 85 % 1013,9 hPa 0,0 l/m 0,7 km/h (0 Bft) NW 309 10 min 0,000 mm 621 W/m 18,5 C 21,1 C 6,4 km/h (2 Bft) 97 %
20.09.2014 14:20 21,3 C 21,1 C 21,3 C 85 % 1013,7 hPa 0,0 l/m 0,0 km/h (0 Bft) W-NW 291 10 min 0,000 mm 336 W/m 18,7 C 21,3 C 1,6 km/h (1 Bft) 98 %
20.09.2014 14:30 21,6 C 21,3 C 21,6 C 84 % 1013,5 hPa 0,2 l/m 0,7 km/h (0 Bft) W 265 10 min 0,000 mm 489 W/m 18,8 C 21,6 C 8,0 km/h (2 Bft) 97 %
20.09.2014 14:40 21,6 C 21,6 C 21,7 C 82 % 1013,5 hPa 0,0 l/m 0,4 km/h (0 Bft) W-SW 252 10 min 0,000 mm 371 W/m 18,4 C 21,6 C 4,8 km/h (1 Bft) 98 %
20.09.2014 14:50 21,8 C 21,6 C 21,8 C 83 % 1013,5 hPa 0,0 l/m 0,2 km/h (0 Bft) W-SW 247 10 min 0,000 mm 606 W/m 18,8 C 21,8 C 3,2 km/h (1 Bft) 97 %
20.09.2014 15:00 22,4 C 21,8 C 22,4 C 78 % 1013,4 hPa 0,0 l/m 2,7 km/h (1 Bft) W-NW 299 10 min 0,305 mm 603 W/m 18,4 C 22,4 C 16,1 km/h (3 Bft) 98 %
20.09.2014 15:10 22,8 C 22,4 C 22,8 C 76 % 1013,3 hPa 0,0 l/m 2,4 km/h (1 Bft) W 259 10 min 0,000 mm 193 W/m 18,3 C 22,8 C 9,7 km/h (2 Bft) 98 %
20.09.2014 15:20 23,3 C 22,8 C 23,3 C 74 % 1013,3 hPa 0,0 l/m 2,9 km/h (1 Bft) W 277 10 min 0,000 mm 615 W/m 18,4 C 23,3 C 12,9 km/h (3 Bft) 97 %
20.09.2014 15:30 23,4 C 23,3 C 23,4 C 70 % 1013,2 hPa 0,0 l/m 4,2 km/h (1 Bft) W-NW 285 0 min 0,000 mm 139 W/m 17,6 C 23,4 C 11,3 km/h (2 Bft) 98 %
20.09.2014 15:40 23,6 C 23,4 C 23,6 C 70 % 1013,2 hPa 0,0 l/m 3,9 km/h (1 Bft) SW 217 10 min 0,000 mm 571 W/m 17,8 C 23,6 C 14,5 km/h (3 Bft) 97 %
20.09.2014 15:50 23,7 C 23,6 C 23,7 C 69 % 1013,2 hPa 0,0 l/m 7,2 km/h (2 Bft) SW 225 10 min 0,000 mm 564 W/m 17,7 C 23,5 C 19,3 km/h (3 Bft) 98 %
20.09.2014 16:00 23,6 C 23,6 C 23,7 C 69 % 1013,3 hPa 0,0 l/m 7,6 km/h (2 Bft) SW 225 0 min 0,305 mm 123 W/m 17,6 C 23,2 C 17,7 km/h (3 Bft) 97 %
20.09.2014 16:10 23,5 C 23,5 C 23,6 C 70 % 1013,3 hPa 0,0 l/m 5,1 km/h (1 Bft) W 274 0 min 0,000 mm 81 W/m 17,7 C 23,5 C 14,5 km/h (3 Bft) 98 %
20.09.2014 16:20 23,3 C 23,3 C 23,5 C 71 % 1013,2 hPa 0,0 l/m 2,2 km/h (1 Bft) W-NW 292 0 min 0,000 mm 97 W/m 17,7 C 23,3 C 9,7 km/h (2 Bft) 97 %
20.09.2014 16:30 23,2 C 23,2 C 23,3 C 69 % 1013,2 hPa 0,0 l/m 3,4 km/h (1 Bft) W-NW 294 0 min 0,000 mm 44 W/m 17,2 C 23,2 C 11,3 km/h (2 Bft) 98 %
20.09.2014 16:40 22,8 C 22,8 C 23,2 C 70 % 1013,2 hPa 0,0 l/m 2,2 km/h (1 Bft) W 260 0 min 0,000 mm 47 W/m 17,0 C 22,8 C 9,7 km/h (2 Bft) 97 %
20.09.2014 16:50 22,5 C 22,5 C 22,8 C 72 % 1013,1 hPa 0,0 l/m 2,5 km/h (1 Bft) W-SW 247 0 min 0,000 mm 49 W/m 17,2 C 22,5 C 11,3 km/h (2 Bft) 98 %
20.09.2014 17:00 22,5 C 22,4 C 22,5 C 73 % 1013,1 hPa 0,0 l/m 1,5 km/h (1 Bft) W 264 0 min 0,000 mm 51 W/m 17,4 C 22,5 C 9,7 km/h (2 Bft) 97 %
20.09.2014 17:10 22,6 C 22,4 C 22,6 C 72 % 1013,1 hPa 0,0 l/m 2,9 km/h (1 Bft) W 276 0 min 0,076 mm 49 W/m 17,3 C 22,6 C 11,3 km/h (2 Bft) 97 %
20.09.2014 17:20 22,6 C 22,5 C 22,6 C 72 % 1013,0 hPa 0,0 l/m 0,9 km/h (0 Bft) W 271 0 min 0,000 mm 47 W/m 17,3 C 22,6 C 8,0 km/h (2 Bft) 97 %
20.09.2014 17:30 22,6 C 22,6 C 22,6 C 72 % 1012,9 hPa 0,0 l/m 2,5 km/h (1 Bft) W-SW 254 0 min 0,000 mm 44 W/m 17,3 C 22,6 C 14,5 km/h (3 Bft) 97 %
20.09.2014 17:40 22,7 C 22,6 C 22,7 C 71 % 1013,0 hPa 0,0 l/m 3,1 km/h (1 Bft) W 276 0 min 0,000 mm 42 W/m 17,2 C 22,7 C 16,1 km/h (3 Bft) 98 %
20.09.2014 17:50 22,7 C 22,7 C 22,7 C 71 % 1013,1 hPa 0,0 l/m 2,8 km/h (1 Bft) W 267 0 min 0,000 mm 40 W/m 17,2 C 22,7 C 11,3 km/h (2 Bft) 97 %
20.09.2014 18:00 22,6 C 22,6 C 22,7 C 71 % 1012,9 hPa 0,0 l/m 1,9 km/h (1 Bft) W 264 0 min 0,000 mm 39 W/m 17,1 C 22,6 C 9,7 km/h (2 Bft) 98 %
20.09.2014 18:10 22,5 C 22,5 C 22,6 C 71 % 1013,2 hPa 0,0 l/m 3,3 km/h (1 Bft) W-NW 285 0 min 0,051 mm 40 W/m 17,0 C 22,5 C 9,7 km/h (2 Bft) 97 %
20.09.2014 18:20 22,3 C 22,3 C 22,5 C 73 % 1013,0 hPa 0,0 l/m 1,2 km/h (1 Bft) W 277 0 min 0,000 mm 54 W/m 17,2 C 22,3 C 9,7 km/h (2 Bft) 97 %
20.09.2014 18:30 22,2 C 22,2 C 22,3 C 72 % 1013,0 hPa 0,0 l/m 1,4 km/h (1 Bft) W 261 0 min 0,000 mm 56 W/m 16,9 C 22,2 C 8,0 km/h (2 Bft) 97 %
20.09.2014 18:40 22,1 C 22,1 C 22,2 C 73 % 1012,9 hPa 0,0 l/m 0,9 km/h (0 Bft) W-NW 301 0 min 0,000 mm 33 W/m 17,0 C 22,1 C 6,4 km/h (2 Bft) 97 %
20.09.2014 18:50 21,9 C 21,9 C 22,1 C 75 % 1013,1 hPa 0,0 l/m 0,0 km/h (0 Bft) N-NW 338 0 min 0,000 mm 32 W/m 17,3 C 21,9 C 1,6 km/h (1 Bft) 98 %
20.09.2014 19:00 21,6 C 21,6 C 21,9 C 77 % 1013,2 hPa 0,0 l/m 0,0 km/h (0 Bft) N-NW 338 0 min 0,000 mm 21 W/m 17,4 C 21,6 C 1,6 km/h (1 Bft) 97 %
20.09.2014 19:10 21,2 C 21,2 C 21,6 C 78 % 1013,2 hPa 0,0 l/m 0,7 km/h (0 Bft) N-NO 16 0 min 0,025 mm 26 W/m 17,2 C 21,2 C 8,0 km/h (2 Bft) 98 %
20.09.2014 19:20 20,7 C 20,7 C 21,2 C 81 % 1013,2 hPa 0,0 l/m 0,0 km/h (0 Bft) N-NO 16 0 min 0,000 mm 14 W/m 17,3 C 20,7 C 1,6 km/h (1 Bft) 97 %
20.09.2014 19:30 20,1 C 20,1 C 20,7 C 84 % 1013,2 hPa 0,0 l/m 0,0 km/h (0 Bft) N-NO 16 0 min 0,000 mm 0 W/m 17,3 C 20,1 C 0,0 km/h (0 Bft) 98 %
20.09.2014 19:40 19,4 C 19,4 C 20,1 C 85 % 1013,4 hPa 0,0 l/m 0,0 km/h (0 Bft) N-NO 16 0 min 0,000 mm 0 W/m 16,8 C 19,4 C 1,6 km/h (1 Bft) 98 %
20.09.2014 19:50 19,0 C 19,0 C 19,4 C 86 % 1013,4 hPa 0,0 l/m 0,0 km/h (0 Bft) N-NO 16 0 min 0,000 mm 0 W/m 16,6 C 19,0 C 0,0 km/h (0 Bft) 97 %
20.09.2014 20:00 18,6 C 18,6 C 19,0 C 87 % 1013,5 hPa 0,0 l/m 0,0 km/h (0 Bft) N-NO 16 0 min 0,000 mm 0 W/m 16,4 C 18,6 C 1,6 km/h (1 Bft) 98 %
20.09.2014 20:10 18,3 C 18,3 C 18,6 C 88 % 1013,4 hPa 0,0 l/m 0,0 km/h (0 Bft) N-NO 16 0 min 0,000 mm 0 W/m 16,3 C 18,3 C 0,0 km/h (0 Bft) 97 %
20.09.2014 20:20 17,9 C 17,9 C 18,3 C 88 % 1013,5 hPa 0,0 l/m 0,0 km/h (0 Bft) N-NO 16 0 min 0,000 mm 0 W/m 15,9 C 17,9 C 1,6 km/h (1 Bft) 98 %
20.09.2014 20:30 17,5 C 17,5 C 17,9 C 89 % 1013,6 hPa 0,0 l/m 0,2 km/h (0 Bft) N-NO 16 0 min 0,000 mm 0 W/m 15,7 C 17,5 C 3,2 km/h (1 Bft) 97 %
20.09.2014 20:40 17,2 C 17,2 C 17,5 C 89 % 1013,5 hPa 0,0 l/m 0,0 km/h (0 Bft) N-NO 16 0 min 0,000 mm 0 W/m 15,4 C 17,2 C 0,0 km/h (0 Bft) 98 %
20.09.2014 20:50 17,0 C 17,0 C 17,2 C 89 % 1013,7 hPa 0,0 l/m 0,0 km/h (0 Bft) N-NO 16 0 min 0,000 mm 0 W/m 15,2 C 17,0 C 0,0 km/h (0 Bft) 97 %
20.09.2014 21:00 16,9 C 16,9 C 17,0 C 89 % 1013,8 hPa 0,0 l/m 0,0 km/h (0 Bft) N-NO 16 0 min 0,000 mm 0 W/m 15,1 C 16,9 C 0,0 km/h (0 Bft) 97 %
20.09.2014 21:10 16,8 C 16,8 C 16,9 C 90 % 1014,0 hPa 0,0 l/m 0,0 km/h (0 Bft) N 0 0 min 0,000 mm 0 W/m 15,1 C 16,8 C 0,0 km/h (0 Bft) 100 %
20.09.2014 21:20 16,6 C 16,6 C 16,8 C 89 % 1014,0 hPa 0,0 l/m 0,0 km/h (0 Bft) N-NO 22 0 min 0,000 mm 0 W/m 14,8 C 16,6 C 3,2 km/h (1 Bft) 100 %
20.09.2014 21:30 16,4 C 16,4 C 16,6 C 90 % 1014,0 hPa 0,0 l/m 0,0 km/h (0 Bft) N 0 0 min 0,000 mm 0 W/m 14,8 C 16,4 C 0,0 km/h (0 Bft) 100 %
20.09.2014 21:40 16,3 C 16,3 C 16,4 C 89 % 1013,9 hPa 0,0 l/m 0,0 km/h (0 Bft) N 0 0 min 0,000 mm 0 W/m 14,5 C 16,3 C 0,0 km/h (0 Bft) 99 %
20.09.2014 21:50 16,2 C 16,2 C 16,3 C 90 % 1014,1 hPa 0,0 l/m 0,0 km/h (0 Bft) N 0 0 min 0,000 mm 0 W/m 14,6 C 16,2 C 0,0 km/h (0 Bft) 100 %
20.09.2014 22:00 16,2 C 16,2 C 16,2 C 90 % 1014,2 hPa 0,0 l/m 0,0 km/h (0 Bft) N 0 0 min 0,000 mm 0 W/m 14,6 C 16,2 C 0,0 km/h (0 Bft) 100 %
20.09.2014 22:10 16,0 C 16,0 C 16,2 C 90 % 1014,2 hPa 0,0 l/m 0,0 km/h (0 Bft) N-NO 22 0 min 0,000 mm 0 W/m 14,4 C 16,0 C 1,6 km/h (1 Bft) 100 %
20.09.2014 22:20 15,9 C 15,9 C 16,0 C 90 % 1014,1 hPa 0,0 l/m 0,0 km/h (0 Bft) N-NO 22 0 min 0,000 mm 0 W/m 14,3 C 15,9 C 1,6 km/h (1 Bft) 100 %
20.09.2014 22:30 15,7 C 15,7 C 15,9 C 90 % 1013,9 hPa 0,0 l/m 0,0 km/h (0 Bft) N 0 0 min 0,000 mm 0 W/m 14,1 C 15,7 C 0,0 km/h (0 Bft) 100 %
20.09.2014 22:40 15,6 C 15,6 C 15,7 C 90 % 1014,0 hPa 0,0 l/m 0,0 km/h (0 Bft) N-NO 22 0 min 0,000 mm 0 W/m 14,0 C 15,6 C 3,2 km/h (1 Bft) 100 %
20.09.2014 22:50 15,4 C 15,4 C 15,6 C 90 % 1014,1 hPa 0,0 l/m 0,0 km/h (0 Bft) N-NO 22 0 min 0,000 mm 0 W/m 13,8 C 15,4 C 1,6 km/h (1 Bft) 100 %
20.09.2014 23:00 15,3 C 15,3 C 15,4 C 90 % 1014,1 hPa 0,0 l/m 0,0 km/h (0 Bft) N-NO 22 0 min 0,000 mm 0 W/m 13,7 C 15,3 C 1,6 km/h (1 Bft) 100 %
20.09.2014 23:10 15,2 C 15,2 C 15,3 C 90 % 1014,5 hPa 0,0 l/m 0,0 km/h (0 Bft) N-NW 337 0 min 0,000 mm 0 W/m 13,6 C 15,2 C 9,7 km/h (2 Bft) 100 %
20.09.2014 23:20 15,3 C 15,2 C 15,3 C 90 % 1014,6 hPa 0,0 l/m 1,6 km/h (1 Bft) N-NW 337 0 min 0,000 mm 0 W/m 13,7 C 15,3 C 14,5 km/h (3 Bft) 100 %
20.09.2014 23:30 15,4 C 15,3 C 15,4 C 90 % 1014,4 hPa 0,0 l/m 0,0 km/h (0 Bft) NO 45 0 min 0,000 mm 0 W/m 13,8 C 15,4 C 1,6 km/h (1 Bft) 100 %
20.09.2014 23:40 15,3 C 15,3 C 15,4 C 90 % 1014,5 hPa 0,0 l/m 0,0 km/h (0 Bft) NO 45 0 min 0,000 mm 0 W/m 13,7 C 15,3 C 3,2 km/h (1 Bft) 100 %
20.09.2014 23:50 15,1 C 15,1 C 15,3 C 90 % 1014,5 hPa 0,0 l/m 0,0 km/h (0 Bft) N 360 0 min 0,000 mm 0 W/m 13,5 C 15,1 C 3,2 km/h (1 Bft) 99 %
_ Min-Zeit 08:10 08:10 08:20 15:50 17:30 - 00:10 - - - - - 08:10 08:10 00:20 12:50
Minimum _ 13,5 C 13,5 C 13,5 C 69 % 1012,9 hPa - 0,0 km/h (0 Bft) - - - - - 11,9 C 13,5 C 0,0 km/h (0 Bft) 96 %
_ Max-Zeit 15:50 15:50 15:50 00:00 23:20 14:30 16:00 - - 08:40 15:00 14:10 14:50 15:40 15:50 00:00
Maximum _ 23,7 C 23,6 C 23,7 C 90 % 1014,6 hPa 0,2 l/m 7,6 km/h
SW (2 Bft)
- - 10 min 0,305 mm 621 W/m 18,8 C 23,6 C 19,3 km/h
W-SW (3 Bft)
100 %
Durchschnitt _ 17,9 C 17,8 C 18,0 C 86 % 1013,7 hPa #0,2 l/m 1,0 km/h (0 Bft) W - #7:10 h #1,549 mm 202 W/m 15,4 C 17,9 C 5,1 km/h (1 Bft) 99 %
PRIVATE WETTERSTATION BILLIGHEIM-ALLFELD - www.neckar-odenwald-wetter.de - Holger Sonntag